Cerberus, Australia
Current Conditions -  °F | °C
As of 7:30 AM on Saturday 29 Nov 2014 (Local Time) from YMAV Reporting Station
Overcast Overcast  
Wind Chill: 57°   Ceiling: 1400
Heat Index: 57°   Visibility: 6mi
Dew Point: 52°   Wind: 7mph
Humidity: 82%   Direction: 100°E
Pressure: 30.06"   Gusts: NA
Location:  38.35°S, 145.17°E
Report Text: YMAV 282030Z AUTO 10006KT 9999 // OVC014 14/11 Q1018
Loading
Personal Weather Stations






























Interactive Weather Map New forecast layout! Learn more

10-Day Weather Forecast

Advertisements
Track Severe Weather on mobile